Hauptseite
METAR-TAF:

METAR-TAF

Flughäfen :

Flughafen Straßburg

Straßburg, Frankreich

Breite: 48-33N, Länge: 007-38E, Höhe: 153 m

Beobachtung

Neuester Wetterbericht von vor 17 Minuten, um 07:00 UTC
Wind 3 kt aus Nord
Temperatur 13°C
Luftfeuchtigkeit 72%
Luftdruck 1026 hPa
Sichtweite 10 km oder mehr
Geschlossene Wolkendecke in der Höhe von 4700 ft

METAR: LFST 070700Z AUTO 36003KT 9999 OVC047 13/08 Q1026 NOSIG

Zeit: 09:17 (07:17 UTC)

Prognose

Neuester Wetterbericht von vor 2 Stunden und 17 Minuten, um 05:00 UTC
Gültige Prognose vom 07 um 06 UTC bis 08 um 06 UTC
Wind 4 kt aus Nord
Sichtweite 10 km oder mehr
Durchbrochene Bewölkung in der Höhe von 5000 ft
Wahrscheinlichkeit 40% :
Zeitweise
vom 08 um 00 UTC bis 08 um 06 UTC
Durchbrochene Bewölkung in der Höhe von 2500 ft
Regenschauer

TAF: LFST 070500Z 0706/0806 35004KT 9999 BKN050 PROB40 TEMPO 0800/0806 -SHRA BKN025

Wetterbeobachtungen und Prognosen von mehr als 4000 Flughäfen (METAR und TAF Bericht).

Die verfügbaren Stationen werden durch gelbe und rote Markierungen auf der Karte dargestellt.

Führen Sie die Maus auf sie, um den Namen der Station zu sehen.

Darauf klicken, um die Beobachtung von Wetterbeobachtungen und Prognosen zu sehen.

Um die Karte zu ändern : klicken Sie auf den grünen Tasten mit einem schwarzen Kreuz Zum Vergrößern, auf den grünen Button mit einem Gedankenstrich zu verkleinern, oder auf die grünen Pfeile für benachbarte Karten.


METAR-TAF: